createdAt,value
2023-03-10T00:00:21.545Z,16.85
2023-03-10T00:02:51.268Z,16.83
2023-03-10T00:05:22.783Z,23.92
2023-03-10T00:07:53.324Z,14.80
2023-03-10T00:10:22.603Z,16.95
2023-03-10T00:12:51.865Z,17.67
2023-03-10T00:18:06.870Z,19.05
2023-03-10T00:20:36.807Z,18.35
2023-03-10T00:23:05.965Z,20.40
2023-03-10T00:25:35.352Z,13.27
2023-03-10T00:28:06.411Z,15.85
2023-03-10T00:30:36.145Z,15.48
2023-03-10T00:33:05.775Z,11.95
2023-03-10T00:35:36.180Z,8.88
2023-03-10T00:38:07.428Z,12.27
2023-03-10T00:40:36.931Z,13.80
2023-03-10T00:43:07.040Z,12.25
2023-03-10T00:45:37.300Z,14.15
2023-03-10T00:48:07.724Z,16.33
2023-03-10T00:50:38.245Z,23.35
2023-03-10T00:53:10.714Z,35.53
2023-03-10T00:55:39.979Z,32.65
2023-03-10T00:58:12.907Z,38.00
2023-03-10T01:00:42.332Z,38.03
2023-03-10T01:03:15.172Z,34.47
2023-03-10T01:05:45.297Z,35.30
2023-03-10T01:08:15.405Z,32.75
2023-03-10T01:10:45.195Z,31.80
2023-03-10T01:13:16.146Z,34.47
2023-03-10T01:15:49.213Z,34.78
2023-03-10T01:18:22.062Z,31.85
2023-03-10T01:20:53.008Z,29.30
2023-03-10T01:23:25.344Z,23.23
2023-03-10T01:25:54.871Z,25.73
2023-03-10T01:28:25.186Z,26.00
2023-03-10T01:30:54.317Z,20.23
2023-03-10T01:33:23.584Z,22.50
2023-03-10T01:35:54.386Z,13.95
2023-03-10T01:38:23.595Z,25.23
2023-03-10T01:40:53.369Z,21.40
2023-03-10T01:43:29.318Z,17.45
2023-03-10T01:46:20.822Z,19.33
2023-03-10T01:48:50.972Z,23.60
2023-03-10T01:51:21.662Z,20.35
2023-03-10T01:53:51.209Z,15.13
2023-03-10T01:56:21.231Z,14.90
2023-03-10T01:58:51.657Z,14.50
2023-03-10T02:01:22.909Z,14.35
2023-03-10T02:04:00.176Z,11.38
2023-03-10T02:06:30.255Z,13.13
2023-03-10T02:09:19.146Z,12.07
2023-03-10T02:11:50.417Z,14.93
2023-03-10T02:14:20.563Z,14.20
2023-03-10T02:16:49.942Z,16.25
2023-03-10T02:19:49.797Z,13.00
2023-03-10T02:22:19.156Z,13.57
2023-03-10T02:24:56.462Z,13.32
2023-03-10T02:27:30.940Z,13.02
2023-03-10T02:30:10.686Z,13.80
2023-03-10T02:32:44.192Z,10.85
2023-03-10T02:35:14.187Z,12.77
2023-03-10T02:37:44.880Z,11.43
2023-03-10T02:40:34.696Z,11.70
2023-03-10T02:43:14.782Z,14.02
2023-03-10T02:45:47.240Z,17.42
2023-03-10T02:48:28.515Z,13.18
2023-03-10T02:51:00.164Z,14.25
2023-03-10T02:53:30.669Z,11.88
2023-03-10T02:56:01.009Z,10.20
2023-03-10T02:58:33.128Z,13.13
2023-03-10T03:01:05.996Z,11.77
2023-03-10T03:03:36.188Z,11.57
2023-03-10T03:06:06.572Z,11.95
2023-03-10T03:08:36.103Z,11.30
2023-03-10T03:11:07.076Z,15.38
2023-03-10T03:13:37.215Z,13.32
2023-03-10T03:16:09.220Z,14.48
2023-03-10T03:18:39.353Z,12.70
2023-03-10T03:21:13.036Z,18.55
2023-03-10T03:23:44.272Z,16.00
2023-03-10T03:26:19.619Z,15.70
2023-03-10T03:28:49.378Z,17.90
2023-03-10T03:31:24.985Z,16.77
2023-03-10T03:36:25.335Z,13.57
2023-03-10T03:38:55.186Z,15.00
2023-03-10T03:41:25.656Z,13.50
2023-03-10T03:43:55.242Z,15.68
2023-03-10T03:46:26.754Z,13.48
2023-03-10T03:48:56.958Z,12.00
2023-03-10T03:51:27.309Z,12.98
2023-03-10T03:53:56.697Z,12.05
2023-03-10T03:56:28.774Z,15.27
2023-03-10T03:58:59.349Z,12.43
2023-03-10T04:01:30.201Z,10.63
2023-03-10T04:04:00.608Z,14.80
2023-03-10T04:06:30.697Z,11.52
2023-03-10T04:09:00.890Z,13.38
2023-03-10T04:11:31.645Z,11.63
2023-03-10T04:14:03.672Z,12.27
2023-03-10T04:16:34.321Z,11.90
2023-03-10T04:19:08.236Z,11.15
2023-03-10T04:21:38.581Z,10.00
2023-03-10T04:24:12.240Z,10.80
2023-03-10T04:26:41.875Z,9.05
2023-03-10T04:29:13.072Z,9.70
2023-03-10T04:31:46.546Z,9.82
2023-03-10T04:34:20.956Z,12.73
2023-03-10T04:36:50.721Z,11.43
2023-03-10T04:39:21.113Z,15.65
2023-03-10T04:41:50.882Z,9.00
2023-03-10T04:44:30.931Z,11.70
2023-03-10T04:47:02.021Z,12.95
2023-03-10T04:49:41.481Z,11.68
2023-03-10T04:52:11.856Z,8.02
2023-03-10T04:54:42.314Z,10.63
2023-03-10T04:57:11.690Z,14.13
2023-03-10T04:59:43.028Z,9.48
2023-03-10T05:02:13.086Z,11.20
2023-03-10T05:04:43.136Z,7.20
2023-03-10T05:07:13.197Z,10.90
2023-03-10T05:09:45.442Z,9.00
2023-03-10T05:12:15.027Z,9.07
2023-03-10T05:14:44.971Z,9.55
2023-03-10T05:17:14.712Z,8.38
2023-03-10T05:19:45.522Z,9.57
2023-03-10T05:22:14.853Z,8.77
2023-03-10T05:24:44.926Z,10.30
2023-03-10T05:27:15.591Z,8.68
2023-03-10T05:29:48.548Z,9.40
2023-03-10T05:32:19.618Z,10.18
2023-03-10T05:34:51.210Z,8.35
2023-03-10T05:37:20.488Z,8.10
2023-03-10T05:39:50.315Z,8.98
2023-03-10T05:42:20.394Z,8.68
2023-03-10T05:44:50.502Z,7.93
2023-03-10T05:47:20.809Z,10.50
2023-03-10T05:49:50.991Z,7.40
2023-03-10T05:52:20.828Z,8.50
2023-03-10T05:54:52.493Z,8.38
2023-03-10T05:57:22.359Z,7.25
2023-03-10T05:59:52.601Z,6.97
2023-03-10T06:02:22.156Z,5.90
2023-03-10T06:04:51.823Z,6.32
2023-03-10T06:07:21.614Z,8.60
2023-03-10T06:09:54.717Z,7.75
2023-03-10T06:12:23.971Z,7.50
2023-03-10T06:14:53.864Z,6.97
2023-03-10T06:17:31.190Z,7.07
2023-03-10T06:20:07.108Z,7.00
2023-03-10T06:22:36.483Z,7.07
2023-03-10T06:25:06.827Z,6.95
2023-03-10T06:27:36.081Z,6.10
2023-03-10T06:30:06.795Z,6.45
2023-03-10T06:32:39.255Z,6.70
2023-03-10T06:35:13.252Z,8.98
2023-03-10T06:37:43.026Z,5.87
2023-03-10T06:40:15.273Z,6.55
2023-03-10T06:42:45.489Z,10.00
2023-03-10T06:45:17.744Z,5.70
2023-03-10T06:47:48.515Z,5.43
2023-03-10T06:50:19.409Z,7.95
2023-03-10T06:52:50.426Z,7.35
2023-03-10T06:55:20.585Z,8.35
2023-03-10T06:57:49.841Z,6.80
2023-03-10T07:00:21.253Z,5.65
2023-03-10T07:02:51.067Z,7.93
2023-03-10T07:05:23.500Z,6.47
2023-03-10T07:07:52.902Z,7.45
2023-03-10T07:10:23.756Z,5.60
2023-03-10T07:12:55.858Z,6.28
2023-03-10T07:15:28.304Z,7.50
2023-03-10T07:17:57.804Z,5.53
2023-03-10T07:20:27.264Z,6.85
2023-03-10T07:22:57.335Z,4.60
2023-03-10T07:25:27.077Z,5.87
2023-03-10T07:27:56.766Z,6.62
2023-03-10T07:30:26.351Z,4.90
2023-03-10T07:32:57.588Z,5.90
2023-03-10T07:35:28.119Z,7.32
2023-03-10T07:37:59.012Z,5.45
2023-03-10T07:40:30.062Z,8.45
2023-03-10T07:42:59.955Z,5.50
2023-03-10T07:45:33.782Z,6.12
2023-03-10T07:48:03.941Z,5.85
2023-03-10T07:50:34.180Z,6.32
2023-03-10T07:53:04.202Z,4.45
2023-03-10T07:55:33.351Z,4.80
2023-03-10T07:58:02.592Z,6.40
2023-03-10T08:00:32.506Z,6.75
2023-03-10T08:03:02.833Z,7.15
2023-03-10T08:05:40.172Z,6.40
2023-03-10T08:08:10.836Z,5.15
2023-03-10T08:10:40.425Z,7.15
2023-03-10T08:13:09.968Z,5.93
2023-03-10T08:15:40.504Z,5.60
2023-03-10T08:18:13.555Z,5.07
2023-03-10T08:20:43.669Z,5.28
2023-03-10T08:23:13.193Z,10.35
2023-03-10T08:25:42.668Z,6.62
2023-03-10T08:28:11.784Z,5.07
2023-03-10T08:31:00.875Z,6.70
2023-03-10T08:33:31.753Z,8.30
2023-03-10T08:36:06.442Z,7.10
2023-03-10T08:38:39.632Z,6.32
2023-03-10T08:41:12.548Z,7.50
2023-03-10T08:43:42.867Z,5.57
2023-03-10T08:46:13.745Z,5.75
2023-03-10T08:48:43.294Z,6.22
2023-03-10T08:51:15.899Z,6.65
2023-03-10T08:53:48.024Z,6.32
2023-03-10T08:56:19.894Z,7.60
2023-03-10T08:58:49.762Z,6.22
2023-03-10T09:01:21.960Z,6.30
2023-03-10T09:03:54.225Z,5.47
2023-03-10T09:06:23.945Z,7.15
2023-03-10T09:08:53.652Z,6.07
2023-03-10T09:11:27.745Z,6.32
2023-03-10T09:13:57.155Z,6.00
2023-03-10T09:16:29.222Z,7.20
2023-03-10T09:18:59.674Z,5.90
2023-03-10T09:21:33.248Z,7.85
2023-03-10T09:24:04.156Z,5.78
2023-03-10T09:26:35.263Z,6.60
2023-03-10T09:29:05.722Z,5.57
2023-03-10T09:31:37.906Z,4.47
2023-03-10T09:34:09.201Z,5.28
2023-03-10T09:36:39.420Z,6.90
2023-03-10T09:39:09.555Z,4.55
2023-03-10T09:42:18.920Z,5.07
2023-03-10T09:44:53.421Z,5.45
2023-03-10T09:47:30.076Z,5.18
2023-03-10T09:50:12.557Z,8.88
2023-03-10T09:52:46.828Z,5.50
2023-03-10T09:55:27.102Z,4.50
2023-03-10T09:57:58.212Z,6.30
2023-03-10T10:00:35.364Z,5.85
2023-03-10T10:03:21.372Z,5.75
2023-03-10T10:05:53.367Z,5.18
2023-03-10T10:08:35.365Z,5.53
2023-03-10T10:11:06.561Z,5.43
2023-03-10T10:13:37.229Z,3.53
2023-03-10T10:16:34.805Z,6.50
2023-03-10T10:19:15.902Z,5.03
2023-03-10T10:22:11.776Z,4.97
2023-03-10T10:24:53.326Z,6.07
2023-03-10T10:27:25.110Z,7.05
2023-03-10T10:29:55.331Z,6.55
2023-03-10T10:32:24.641Z,5.25
2023-03-10T10:35:15.204Z,4.72
2023-03-10T10:37:45.029Z,4.78
2023-03-10T10:40:34.057Z,5.47
2023-03-10T10:43:08.290Z,5.10
2023-03-10T10:45:42.149Z,5.47
2023-03-10T10:48:48.203Z,5.28
2023-03-10T10:51:22.862Z,6.50
2023-03-10T10:53:52.432Z,3.53
2023-03-10T10:56:25.004Z,9.70
2023-03-10T10:59:15.162Z,5.57
2023-03-10T11:02:02.901Z,7.07
2023-03-10T11:04:48.343Z,6.00
2023-03-10T11:07:25.430Z,5.80
2023-03-10T11:09:58.516Z,5.95
2023-03-10T11:12:44.727Z,5.22
2023-03-10T11:15:21.773Z,6.00
2023-03-10T11:17:58.737Z,5.97
2023-03-10T11:20:33.525Z,6.30
2023-03-10T11:23:15.977Z,5.07
2023-03-10T11:25:53.479Z,4.90
2023-03-10T11:28:41.940Z,6.85
2023-03-10T11:31:16.475Z,5.80
2023-03-10T11:34:11.650Z,4.53
2023-03-10T11:37:03.556Z,4.70
2023-03-10T11:39:52.665Z,5.15
2023-03-10T11:42:31.227Z,4.20
2023-03-10T11:45:19.394Z,5.30
2023-03-10T11:48:11.611Z,6.62
2023-03-10T11:51:01.634Z,4.75
2023-03-10T11:53:53.089Z,4.78
2023-03-10T11:56:25.798Z,5.00
2023-03-10T11:59:18.618Z,6.93
2023-03-10T12:01:59.827Z,5.57
2023-03-10T12:04:35.716Z,5.20
2023-03-10T12:07:23.434Z,6.78
2023-03-10T12:09:57.544Z,4.37
2023-03-10T12:12:33.144Z,3.72
2023-03-10T12:15:06.911Z,3.85
2023-03-10T12:17:37.669Z,5.43
2023-03-10T12:20:15.173Z,5.35
2023-03-10T12:22:51.112Z,6.65
2023-03-10T12:25:38.846Z,4.50
2023-03-10T12:28:27.405Z,4.60
2023-03-10T12:31:11.065Z,5.45
2023-03-10T12:33:43.049Z,4.35
2023-03-10T12:36:36.147Z,4.50
2023-03-10T12:39:31.484Z,4.75
2023-03-10T12:42:03.661Z,5.03
2023-03-10T12:44:53.393Z,9.63
2023-03-10T12:47:45.749Z,4.55
2023-03-10T12:50:32.286Z,7.35
2023-03-10T12:53:12.622Z,6.18
2023-03-10T12:56:05.582Z,5.82
2023-03-10T13:01:12.136Z,5.10
2023-03-10T13:03:49.440Z,9.15
2023-03-10T13:06:34.292Z,5.87
2023-03-10T13:09:27.618Z,7.03
2023-03-10T13:12:03.377Z,8.32
2023-03-10T13:14:39.437Z,7.65
2023-03-10T13:17:22.039Z,8.15
2023-03-10T13:20:05.022Z,7.07
2023-03-10T13:22:35.197Z,7.40
2023-03-10T13:25:10.256Z,4.93
2023-03-10T13:27:39.746Z,6.35
2023-03-10T13:30:20.999Z,5.28
2023-03-10T13:33:00.321Z,4.95
2023-03-10T13:35:34.637Z,7.10
2023-03-10T13:40:46.060Z,7.50
2023-03-10T13:43:36.652Z,7.55
2023-03-10T13:46:14.948Z,5.95
2023-03-10T13:48:45.750Z,7.82
2023-03-10T13:51:26.761Z,5.32
2023-03-10T13:54:11.698Z,6.10
2023-03-10T13:56:50.836Z,6.20
2023-03-10T13:59:30.577Z,7.18
2023-03-10T14:02:02.153Z,5.75
2023-03-10T14:04:52.125Z,5.28
2023-03-10T14:07:24.977Z,5.22
2023-03-10T14:10:11.172Z,5.68
2023-03-10T14:12:47.358Z,6.80
2023-03-10T14:15:39.547Z,7.07
2023-03-10T14:18:09.389Z,4.70
2023-03-10T14:20:43.202Z,3.67
2023-03-10T14:23:20.292Z,5.82
2023-03-10T14:25:53.015Z,5.45
2023-03-10T14:28:29.001Z,5.75
2023-03-10T14:31:00.424Z,5.70
2023-03-10T14:36:13.424Z,6.97
2023-03-10T14:38:45.125Z,6.00
2023-03-10T14:41:16.622Z,5.12
2023-03-10T14:43:50.938Z,7.82
2023-03-10T14:49:06.608Z,7.95
2023-03-10T14:51:39.838Z,5.68
2023-03-10T14:54:19.626Z,8.95
2023-03-10T14:56:59.789Z,7.07
2023-03-10T14:59:31.664Z,6.62
2023-03-10T15:02:10.028Z,6.47
2023-03-10T15:04:39.462Z,8.45
2023-03-10T15:07:13.729Z,8.07
2023-03-10T15:09:43.061Z,12.77
2023-03-10T15:12:16.612Z,10.63
2023-03-10T15:14:53.394Z,7.28
2023-03-10T15:17:23.805Z,6.68
2023-03-10T15:19:53.334Z,7.78
2023-03-10T15:22:23.437Z,7.70
2023-03-10T15:24:53.568Z,10.32
2023-03-10T15:27:22.854Z,15.77
2023-03-10T15:29:52.968Z,12.37
2023-03-10T15:32:22.778Z,13.23
2023-03-10T15:34:52.942Z,13.27
2023-03-10T15:37:22.897Z,9.38
2023-03-10T15:39:52.749Z,10.15
2023-03-10T15:42:22.482Z,5.53
2023-03-10T15:44:53.394Z,10.25
2023-03-10T15:47:23.625Z,8.27
2023-03-10T15:49:53.387Z,9.52
2023-03-10T15:52:24.427Z,6.70
2023-03-10T15:54:53.588Z,20.80
2023-03-10T15:57:23.836Z,13.15
2023-03-10T15:59:53.341Z,13.65
2023-03-10T16:02:22.682Z,10.85
2023-03-10T16:04:52.916Z,12.98
2023-03-10T16:07:22.754Z,15.40
2023-03-10T16:09:52.838Z,11.48
2023-03-10T16:12:23.118Z,15.55
2023-03-10T16:14:52.533Z,12.63
2023-03-10T16:17:22.167Z,10.38
2023-03-10T16:19:52.061Z,14.55
2023-03-10T16:22:21.754Z,13.23
2023-03-10T16:24:51.404Z,12.77
2023-03-10T16:27:20.734Z,13.23
2023-03-10T16:29:50.440Z,9.63
2023-03-10T16:32:20.571Z,14.70
2023-03-10T16:34:49.693Z,15.15
2023-03-10T16:37:19.412Z,6.18
2023-03-10T16:39:49.193Z,13.65
2023-03-10T16:42:18.321Z,8.73
2023-03-10T16:44:48.381Z,10.48
2023-03-10T16:47:18.613Z,6.07
2023-03-10T16:49:48.936Z,4.60
2023-03-10T16:52:18.352Z,4.55
2023-03-10T16:54:48.236Z,3.72
2023-03-10T16:57:18.675Z,11.70
2023-03-10T16:59:51.370Z,6.75
2023-03-10T17:02:21.865Z,13.07
2023-03-10T17:04:54.866Z,15.13
2023-03-10T17:07:25.873Z,11.95
2023-03-10T17:09:55.520Z,15.13
2023-03-10T17:12:25.870Z,13.02
2023-03-10T17:14:58.630Z,12.80
2023-03-10T17:17:31.051Z,8.98
2023-03-10T17:20:02.539Z,17.55
2023-03-10T17:22:32.474Z,16.77
2023-03-10T17:25:02.342Z,13.02
2023-03-10T17:27:33.322Z,5.22
2023-03-10T17:30:02.928Z,8.63
2023-03-10T17:32:33.245Z,4.45
2023-03-10T17:35:03.241Z,10.80
2023-03-10T17:37:33.732Z,8.93
2023-03-10T17:40:05.801Z,8.32
2023-03-10T17:42:35.752Z,7.95
2023-03-10T17:45:07.169Z,11.80
2023-03-10T17:47:38.285Z,11.10
2023-03-10T17:50:08.227Z,11.95
2023-03-10T17:52:38.035Z,8.07
2023-03-10T17:55:08.235Z,9.40
2023-03-10T17:57:40.649Z,10.30
2023-03-10T18:00:11.451Z,12.83
2023-03-10T18:02:40.970Z,7.03
2023-03-10T18:05:11.423Z,7.28
2023-03-10T18:07:40.574Z,4.37
2023-03-10T18:10:13.168Z,4.07
2023-03-10T18:12:43.652Z,6.82
2023-03-10T18:15:14.915Z,8.15
2023-03-10T18:17:44.732Z,6.45
2023-03-10T18:20:15.805Z,5.50
2023-03-10T18:22:45.465Z,7.55
2023-03-10T18:25:16.377Z,9.07
2023-03-10T18:27:47.257Z,8.80
2023-03-10T18:30:17.572Z,9.32
2023-03-10T18:32:47.042Z,6.95
2023-03-10T18:35:16.682Z,4.22
2023-03-10T18:37:47.631Z,10.82
2023-03-10T18:40:18.012Z,6.62
2023-03-10T18:42:49.516Z,6.90
2023-03-10T18:45:19.495Z,8.45
2023-03-10T18:47:49.512Z,7.55
2023-03-10T18:50:19.037Z,17.62
2023-03-10T18:52:49.118Z,6.87
2023-03-10T18:55:18.868Z,10.27
2023-03-10T18:57:49.375Z,16.98
2023-03-10T19:00:20.605Z,14.93
2023-03-10T19:02:53.937Z,17.37
2023-03-10T19:05:23.574Z,21.98
2023-03-10T19:07:53.839Z,15.93
2023-03-10T19:10:23.499Z,11.20
2023-03-10T19:12:53.385Z,12.93
2023-03-10T19:15:24.279Z,13.45
2023-03-10T19:17:54.599Z,9.45
2023-03-10T19:20:24.901Z,10.95
2023-03-10T19:22:56.185Z,10.48
2023-03-10T19:25:25.749Z,10.88
2023-03-10T19:27:57.204Z,12.10
2023-03-10T19:30:27.049Z,5.53
2023-03-10T19:32:57.244Z,9.40
2023-03-10T19:35:26.706Z,9.93
2023-03-10T19:37:57.041Z,12.68
2023-03-10T19:40:26.502Z,9.75
2023-03-10T19:42:56.648Z,12.00
2023-03-10T19:45:26.513Z,5.45
2023-03-10T19:47:58.562Z,12.35
2023-03-10T19:50:28.548Z,7.35
2023-03-10T19:52:59.255Z,6.43
2023-03-10T19:55:28.572Z,8.68
2023-03-10T19:57:58.997Z,9.70
2023-03-10T20:00:31.896Z,13.88
2023-03-10T20:03:03.970Z,12.68
2023-03-10T20:05:34.043Z,14.35
2023-03-10T20:08:03.915Z,18.73
2023-03-10T20:10:33.349Z,13.75
2023-03-10T20:13:02.883Z,13.25
2023-03-10T20:15:34.095Z,11.12
2023-03-10T20:18:04.452Z,18.98
2023-03-10T20:20:35.352Z,11.48
2023-03-10T20:23:04.856Z,11.70
2023-03-10T20:25:34.570Z,9.68
2023-03-10T20:28:04.241Z,11.85
2023-03-10T20:30:34.645Z,10.57
2023-03-10T20:33:05.377Z,10.40
2023-03-10T20:35:35.420Z,12.45
2023-03-10T20:38:05.100Z,12.73
2023-03-10T20:40:34.779Z,11.07
2023-03-10T20:43:04.537Z,12.88
2023-03-10T20:45:34.557Z,10.35
2023-03-10T20:48:04.547Z,12.70
2023-03-10T20:50:34.118Z,12.43
2023-03-10T20:53:04.661Z,10.73
2023-03-10T20:55:34.122Z,11.40
2023-03-10T20:58:03.952Z,12.32
2023-03-10T21:00:33.599Z,11.52
2023-03-10T21:03:03.448Z,9.77
2023-03-10T21:05:33.862Z,14.52
2023-03-10T21:08:04.083Z,10.00
2023-03-10T21:10:33.598Z,9.60
2023-03-10T21:13:02.702Z,11.75
2023-03-10T21:15:33.022Z,12.30
2023-03-10T21:18:02.083Z,10.80
2023-03-10T21:20:33.414Z,16.90
2023-03-10T21:23:02.649Z,14.90
2023-03-10T21:25:32.509Z,11.38
2023-03-10T21:28:02.814Z,12.32
2023-03-10T21:30:34.217Z,13.32
2023-03-10T21:33:04.657Z,14.95
2023-03-10T21:35:37.591Z,10.93
2023-03-10T21:38:07.709Z,14.07
2023-03-10T21:40:37.133Z,16.85
2023-03-10T21:43:06.996Z,20.20
2023-03-10T21:45:38.225Z,15.20
2023-03-10T21:48:09.078Z,19.12
2023-03-10T21:50:39.122Z,14.02
2023-03-10T21:53:09.723Z,16.08
2023-03-10T21:55:38.857Z,15.68
2023-03-10T21:58:08.642Z,17.27
2023-03-10T22:00:38.193Z,14.65
2023-03-10T22:03:08.348Z,15.48
2023-03-10T22:05:37.710Z,14.65
2023-03-10T22:08:07.315Z,15.77
2023-03-10T22:10:36.750Z,15.13
2023-03-10T22:13:06.109Z,14.38
2023-03-10T22:15:35.863Z,20.15
2023-03-10T22:18:05.405Z,16.77
2023-03-10T22:20:35.059Z,20.27
2023-03-10T22:23:05.874Z,16.98
2023-03-10T22:25:35.578Z,16.33
2023-03-10T22:28:06.017Z,22.40
2023-03-10T22:30:35.249Z,21.55
2023-03-10T22:33:07.668Z,23.42
2023-03-10T22:35:38.801Z,23.85
2023-03-10T22:38:08.961Z,28.62
2023-03-10T22:40:38.045Z,23.35
2023-03-10T22:43:07.285Z,23.73
2023-03-10T22:45:39.281Z,25.85
2023-03-10T22:48:08.705Z,29.65
2023-03-10T22:50:41.926Z,24.40
2023-03-10T22:55:47.320Z,23.83
2023-03-10T22:58:16.928Z,25.33
2023-03-10T23:00:47.131Z,17.37
2023-03-10T23:03:16.768Z,22.08
2023-03-10T23:05:48.092Z,23.90
2023-03-10T23:08:17.769Z,30.23
2023-03-10T23:10:47.972Z,27.77
2023-03-10T23:13:18.244Z,28.02
2023-03-10T23:15:48.475Z,23.58
2023-03-10T23:18:18.096Z,22.42
2023-03-10T23:20:49.869Z,29.60
2023-03-10T23:23:19.175Z,27.98
2023-03-10T23:25:51.715Z,24.87
2023-03-10T23:28:22.372Z,18.65
2023-03-10T23:30:54.051Z,21.05
2023-03-10T23:33:24.920Z,16.40
2023-03-10T23:35:57.121Z,20.55
2023-03-10T23:38:28.871Z,15.15
2023-03-10T23:40:59.026Z,17.17
2023-03-10T23:43:30.561Z,20.55
2023-03-10T23:46:07.619Z,16.67
2023-03-10T23:48:37.156Z,21.73
2023-03-10T23:51:07.066Z,19.90
2023-03-10T23:53:36.395Z,15.57
2023-03-10T23:56:06.527Z,19.37
2023-03-10T23:58:36.221Z,26.37
